sensor_id;sensor_type;location;lat;lon;timestamp;P1;durP1;ratioP1;P2;durP2;ratioP2
3967;SDS011;9221;42.646;23.380;2022-08-06T00:00:43;13.37;;;5.47;;
3967;SDS011;9221;42.646;23.380;2022-08-06T00:03:08;8.90;;;3.90;;
3967;SDS011;9221;42.646;23.380;2022-08-06T00:05:34;12.83;;;4.00;;
3967;SDS011;9221;42.646;23.380;2022-08-06T00:07:59;7.03;;;3.40;;
3967;SDS011;9221;42.646;23.380;2022-08-06T00:10:25;8.97;;;3.90;;
3967;SDS011;9221;42.646;23.380;2022-08-06T00:12:51;9.47;;;3.90;;
3967;SDS011;9221;42.646;23.380;2022-08-06T00:15:17;14.37;;;4.50;;
3967;SDS011;9221;42.646;23.380;2022-08-06T00:17:44;20.47;;;5.10;;
3967;SDS011;9221;42.646;23.380;2022-08-06T00:20:11;15.57;;;4.57;;
3967;SDS011;9221;42.646;23.380;2022-08-06T00:22:37;10.43;;;4.10;;
3967;SDS011;9221;42.646;23.380;2022-08-06T00:25:03;12.90;;;4.50;;
3967;SDS011;9221;42.646;23.380;2022-08-06T00:27:29;13.87;;;4.27;;
3967;SDS011;9221;42.646;23.380;2022-08-06T00:29:54;9.20;;;4.10;;
3967;SDS011;9221;42.646;23.380;2022-08-06T00:32:20;11.90;;;4.03;;
3967;SDS011;9221;42.646;23.380;2022-08-06T00:34:45;8.37;;;3.87;;
3967;SDS011;9221;42.646;23.380;2022-08-06T00:37:11;9.57;;;3.40;;
3967;SDS011;9221;42.646;23.380;2022-08-06T00:39:36;7.33;;;4.00;;
3967;SDS011;9221;42.646;23.380;2022-08-06T00:42:02;10.33;;;4.17;;
3967;SDS011;9221;42.646;23.380;2022-08-06T00:44:28;8.23;;;4.03;;
3967;SDS011;9221;42.646;23.380;2022-08-06T00:46:53;7.70;;;3.87;;
3967;SDS011;9221;42.646;23.380;2022-08-06T00:49:18;8.43;;;4.30;;
3967;SDS011;9221;42.646;23.380;2022-08-06T00:51:44;8.20;;;4.13;;
3967;SDS011;9221;42.646;23.380;2022-08-06T00:54:09;7.20;;;3.60;;
3967;SDS011;9221;42.646;23.380;2022-08-06T00:56:35;12.43;;;3.97;;
3967;SDS011;9221;42.646;23.380;2022-08-06T00:59:00;11.23;;;4.67;;
3967;SDS011;9221;42.646;23.380;2022-08-06T01:01:26;12.77;;;4.43;;
3967;SDS011;9221;42.646;23.380;2022-08-06T01:03:51;16.60;;;4.60;;
3967;SDS011;9221;42.646;23.380;2022-08-06T01:06:17;12.40;;;5.07;;
3967;SDS011;9221;42.646;23.380;2022-08-06T01:08:44;9.80;;;4.20;;
3967;SDS011;9221;42.646;23.380;2022-08-06T01:11:09;7.20;;;3.53;;
3967;SDS011;9221;42.646;23.380;2022-08-06T01:13:35;9.33;;;4.10;;
3967;SDS011;9221;42.646;23.380;2022-08-06T01:30:04;8.80;;;3.90;;
3967;SDS011;9221;42.646;23.380;2022-08-06T01:32:38;11.37;;;4.80;;
3967;SDS011;9221;42.646;23.380;2022-08-06T01:35:10;8.47;;;3.90;;
3967;SDS011;9221;42.646;23.380;2022-08-06T01:40:37;11.93;;;4.83;;
3967;SDS011;9221;42.646;23.380;2022-08-06T01:43:05;9.60;;;4.17;;
3967;SDS011;9221;42.646;23.380;2022-08-06T01:45:33;6.97;;;4.40;;
3967;SDS011;9221;42.646;23.380;2022-08-06T01:48:02;10.70;;;4.50;;
3967;SDS011;9221;42.646;23.380;2022-08-06T01:50:31;6.60;;;3.93;;
3967;SDS011;9221;42.646;23.380;2022-08-06T01:53:00;5.97;;;3.80;;
3967;SDS011;9221;42.646;23.380;2022-08-06T01:55:28;6.27;;;3.70;;
3967;SDS011;9221;42.646;23.380;2022-08-06T01:57:57;6.50;;;4.03;;
3967;SDS011;9221;42.646;23.380;2022-08-06T02:00:27;9.50;;;4.37;;
3967;SDS011;9221;42.646;23.380;2022-08-06T02:02:54;6.63;;;4.20;;
3967;SDS011;9221;42.646;23.380;2022-08-06T02:05:23;8.47;;;4.10;;
3967;SDS011;9221;42.646;23.380;2022-08-06T02:07:50;12.80;;;4.67;;
3967;SDS011;9221;42.646;23.380;2022-08-06T02:10:18;8.17;;;3.97;;
3967;SDS011;9221;42.646;23.380;2022-08-06T02:12:46;8.80;;;4.50;;
3967;SDS011;9221;42.646;23.380;2022-08-06T02:15:21;9.40;;;4.30;;
3967;SDS011;9221;42.646;23.380;2022-08-06T02:17:51;7.37;;;4.30;;
3967;SDS011;9221;42.646;23.380;2022-08-06T02:20:30;15.33;;;4.93;;
3967;SDS011;9221;42.646;23.380;2022-08-06T02:22:59;9.60;;;4.47;;
3967;SDS011;9221;42.646;23.380;2022-08-06T02:25:28;11.43;;;4.80;;
3967;SDS011;9221;42.646;23.380;2022-08-06T02:27:55;12.10;;;4.63;;
3967;SDS011;9221;42.646;23.380;2022-08-06T02:30:23;9.93;;;4.30;;
3967;SDS011;9221;42.646;23.380;2022-08-06T02:32:50;26.53;;;5.30;;
3967;SDS011;9221;42.646;23.380;2022-08-06T02:35:15;12.20;;;4.80;;
3967;SDS011;9221;42.646;23.380;2022-08-06T02:37:46;14.27;;;5.17;;
3967;SDS011;9221;42.646;23.380;2022-08-06T02:40:22;10.20;;;4.47;;
3967;SDS011;9221;42.646;23.380;2022-08-06T02:42:55;12.70;;;4.70;;
3967;SDS011;9221;42.646;23.380;2022-08-06T02:45:40;15.27;;;4.50;;
3967;SDS011;9221;42.646;23.380;2022-08-06T02:48:15;7.40;;;3.83;;
3967;SDS011;9221;42.646;23.380;2022-08-06T02:50:47;13.00;;;4.77;;
3967;SDS011;9221;42.646;23.380;2022-08-06T02:53:19;13.50;;;4.87;;
3967;SDS011;9221;42.646;23.380;2022-08-06T02:55:49;11.07;;;4.60;;
3967;SDS011;9221;42.646;23.380;2022-08-06T02:58:33;9.17;;;4.30;;
3967;SDS011;9221;42.646;23.380;2022-08-06T03:01:05;9.60;;;4.30;;
3967;SDS011;9221;42.646;23.380;2022-08-06T03:03:33;16.03;;;5.40;;
3967;SDS011;9221;42.646;23.380;2022-08-06T03:06:02;13.97;;;5.30;;
3967;SDS011;9221;42.646;23.380;2022-08-06T03:08:30;11.97;;;4.50;;
3967;SDS011;9221;42.646;23.380;2022-08-06T03:10:58;16.90;;;5.17;;
3967;SDS011;9221;42.646;23.380;2022-08-06T03:13:24;13.63;;;4.73;;
3967;SDS011;9221;42.646;23.380;2022-08-06T03:15:52;10.20;;;4.77;;
3967;SDS011;9221;42.646;23.380;2022-08-06T03:18:19;19.00;;;4.67;;
3967;SDS011;9221;42.646;23.380;2022-08-06T03:20:46;9.33;;;4.20;;
3967;SDS011;9221;42.646;23.380;2022-08-06T03:23:13;6.70;;;3.70;;
3967;SDS011;9221;42.646;23.380;2022-08-06T03:25:40;8.10;;;4.00;;
3967;SDS011;9221;42.646;23.380;2022-08-06T03:28:10;6.47;;;4.03;;
3967;SDS011;9221;42.646;23.380;2022-08-06T03:30:36;11.73;;;4.67;;
3967;SDS011;9221;42.646;23.380;2022-08-06T03:33:07;8.00;;;4.13;;
3967;SDS011;9221;42.646;23.380;2022-08-06T03:35:34;8.03;;;4.47;;
3967;SDS011;9221;42.646;23.380;2022-08-06T03:38:01;9.10;;;4.30;;
3967;SDS011;9221;42.646;23.380;2022-08-06T03:40:28;11.17;;;4.47;;
3967;SDS011;9221;42.646;23.380;2022-08-06T03:42:55;9.60;;;4.50;;
3967;SDS011;9221;42.646;23.380;2022-08-06T03:45:20;10.60;;;4.37;;
3967;SDS011;9221;42.646;23.380;2022-08-06T03:47:48;10.60;;;4.77;;
3967;SDS011;9221;42.646;23.380;2022-08-06T03:50:20;15.30;;;5.80;;
3967;SDS011;9221;42.646;23.380;2022-08-06T03:52:50;11.40;;;5.60;;
3967;SDS011;9221;42.646;23.380;2022-08-06T03:55:23;11.47;;;4.93;;
3967;SDS011;9221;42.646;23.380;2022-08-06T03:57:52;15.40;;;5.53;;
3967;SDS011;9221;42.646;23.380;2022-08-06T04:00:21;17.23;;;5.50;;
3967;SDS011;9221;42.646;23.380;2022-08-06T04:02:53;9.93;;;4.83;;
3967;SDS011;9221;42.646;23.380;2022-08-06T04:05:21;8.80;;;4.27;;
3967;SDS011;9221;42.646;23.380;2022-08-06T04:07:49;8.77;;;5.00;;
3967;SDS011;9221;42.646;23.380;2022-08-06T04:10:17;10.90;;;4.93;;
3967;SDS011;9221;42.646;23.380;2022-08-06T04:12:43;9.73;;;4.70;;
3967;SDS011;9221;42.646;23.380;2022-08-06T04:15:11;10.13;;;5.63;;
3967;SDS011;9221;42.646;23.380;2022-08-06T04:17:39;7.83;;;4.90;;
3967;SDS011;9221;42.646;23.380;2022-08-06T04:20:07;9.93;;;4.90;;
3967;SDS011;9221;42.646;23.380;2022-08-06T04:22:34;7.17;;;4.40;;
3967;SDS011;9221;42.646;23.380;2022-08-06T04:25:00;12.90;;;5.63;;
3967;SDS011;9221;42.646;23.380;2022-08-06T04:27:26;8.40;;;5.00;;
3967;SDS011;9221;42.646;23.380;2022-08-06T04:29:53;14.00;;;5.30;;
3967;SDS011;9221;42.646;23.380;2022-08-06T04:32:22;13.03;;;5.37;;
3967;SDS011;9221;42.646;23.380;2022-08-06T04:34:49;12.87;;;5.67;;
3967;SDS011;9221;42.646;23.380;2022-08-06T04:37:17;17.77;;;5.80;;
3967;SDS011;9221;42.646;23.380;2022-08-06T04:39:43;16.10;;;5.83;;
3967;SDS011;9221;42.646;23.380;2022-08-06T04:42:09;18.17;;;6.30;;
3967;SDS011;9221;42.646;23.380;2022-08-06T04:44:35;15.33;;;5.40;;
3967;SDS011;9221;42.646;23.380;2022-08-06T04:47:01;15.07;;;5.43;;
3967;SDS011;9221;42.646;23.380;2022-08-06T04:49:28;19.73;;;6.80;;
3967;SDS011;9221;42.646;23.380;2022-08-06T04:51:54;21.23;;;6.17;;
3967;SDS011;9221;42.646;23.380;2022-08-06T04:54:20;20.50;;;6.37;;
3967;SDS011;9221;42.646;23.380;2022-08-06T04:56:46;18.03;;;5.43;;
3967;SDS011;9221;42.646;23.380;2022-08-06T04:59:11;24.10;;;6.20;;
3967;SDS011;9221;42.646;23.380;2022-08-06T05:01:37;19.93;;;6.33;;
3967;SDS011;9221;42.646;23.380;2022-08-06T05:04:02;14.83;;;5.60;;
3967;SDS011;9221;42.646;23.380;2022-08-06T05:09:10;22.07;;;7.00;;
3967;SDS011;9221;42.646;23.380;2022-08-06T05:11:43;13.80;;;5.73;;
3967;SDS011;9221;42.646;23.380;2022-08-06T05:14:19;12.90;;;5.33;;
3967;SDS011;9221;42.646;23.380;2022-08-06T05:16:49;12.80;;;5.73;;
3967;SDS011;9221;42.646;23.380;2022-08-06T05:19:38;9.50;;;5.37;;
3967;SDS011;9221;42.646;23.380;2022-08-06T05:22:06;11.50;;;5.40;;
3967;SDS011;9221;42.646;23.380;2022-08-06T05:24:36;9.77;;;4.93;;
3967;SDS011;9221;42.646;23.380;2022-08-06T05:27:02;12.13;;;6.10;;
3967;SDS011;9221;42.646;23.380;2022-08-06T05:29:28;12.43;;;5.80;;
3967;SDS011;9221;42.646;23.380;2022-08-06T05:31:57;10.17;;;5.67;;
3967;SDS011;9221;42.646;23.380;2022-08-06T05:34:23;8.60;;;5.27;;
3967;SDS011;9221;42.646;23.380;2022-08-06T05:36:49;11.87;;;5.10;;
3967;SDS011;9221;42.646;23.380;2022-08-06T05:39:14;11.93;;;5.87;;
3967;SDS011;9221;42.646;23.380;2022-08-06T05:41:40;14.30;;;5.13;;
3967;SDS011;9221;42.646;23.380;2022-08-06T05:44:06;10.20;;;5.27;;
3967;SDS011;9221;42.646;23.380;2022-08-06T05:46:36;9.80;;;5.40;;
3967;SDS011;9221;42.646;23.380;2022-08-06T05:49:16;11.93;;;5.50;;
3967;SDS011;9221;42.646;23.380;2022-08-06T05:51:49;7.77;;;4.90;;
3967;SDS011;9221;42.646;23.380;2022-08-06T05:54:23;10.87;;;5.63;;
3967;SDS011;9221;42.646;23.380;2022-08-06T05:57:13;7.37;;;4.73;;
3967;SDS011;9221;42.646;23.380;2022-08-06T05:59:48;12.70;;;6.00;;
3967;SDS011;9221;42.646;23.380;2022-08-06T06:02:17;12.17;;;6.07;;
3967;SDS011;9221;42.646;23.380;2022-08-06T06:04:43;14.87;;;6.50;;
3967;SDS011;9221;42.646;23.380;2022-08-06T06:07:12;10.20;;;5.27;;
3967;SDS011;9221;42.646;23.380;2022-08-06T06:09:38;10.73;;;5.50;;
3967;SDS011;9221;42.646;23.380;2022-08-06T06:12:04;9.33;;;5.37;;
3967;SDS011;9221;42.646;23.380;2022-08-06T06:14:33;12.43;;;5.30;;
3967;SDS011;9221;42.646;23.380;2022-08-06T06:17:15;10.57;;;5.20;;
3967;SDS011;9221;42.646;23.380;2022-08-06T06:20:02;8.93;;;5.37;;
3967;SDS011;9221;42.646;23.380;2022-08-06T06:22:42;8.10;;;4.83;;
3967;SDS011;9221;42.646;23.380;2022-08-06T06:25:13;11.33;;;5.60;;
3967;SDS011;9221;42.646;23.380;2022-08-06T06:27:48;7.50;;;4.20;;
3967;SDS011;9221;42.646;23.380;2022-08-06T06:30:21;9.90;;;5.37;;
3967;SDS011;9221;42.646;23.380;2022-08-06T06:35:57;10.50;;;5.80;;
3967;SDS011;9221;42.646;23.380;2022-08-06T06:40:57;12.83;;;5.97;;
3967;SDS011;9221;42.646;23.380;2022-08-06T06:46:22;10.63;;;5.50;;
3967;SDS011;9221;42.646;23.380;2022-08-06T06:48:54;10.63;;;5.70;;
3967;SDS011;9221;42.646;23.380;2022-08-06T06:51:31;17.33;;;6.00;;
3967;SDS011;9221;42.646;23.380;2022-08-06T06:53:58;11.77;;;5.23;;
3967;SDS011;9221;42.646;23.380;2022-08-06T06:56:32;22.83;;;6.30;;
3967;SDS011;9221;42.646;23.380;2022-08-06T06:59:02;13.90;;;6.50;;
3967;SDS011;9221;42.646;23.380;2022-08-06T07:01:32;13.07;;;6.20;;
3967;SDS011;9221;42.646;23.380;2022-08-06T07:04:00;17.17;;;7.40;;
3967;SDS011;9221;42.646;23.380;2022-08-06T07:06:30;15.70;;;6.97;;
3967;SDS011;9221;42.646;23.380;2022-08-06T07:08:57;15.40;;;6.30;;
3967;SDS011;9221;42.646;23.380;2022-08-06T07:11:25;17.60;;;5.67;;
3967;SDS011;9221;42.646;23.380;2022-08-06T07:13:52;14.03;;;5.93;;
3967;SDS011;9221;42.646;23.380;2022-08-06T07:16:21;16.97;;;6.37;;
3967;SDS011;9221;42.646;23.380;2022-08-06T07:18:49;17.67;;;6.83;;
3967;SDS011;9221;42.646;23.380;2022-08-06T07:21:17;25.60;;;7.87;;
3967;SDS011;9221;42.646;23.380;2022-08-06T07:23:45;17.30;;;6.17;;
3967;SDS011;9221;42.646;23.380;2022-08-06T07:26:13;19.43;;;6.93;;
3967;SDS011;9221;42.646;23.380;2022-08-06T07:28:42;16.30;;;6.67;;
3967;SDS011;9221;42.646;23.380;2022-08-06T07:31:10;15.40;;;6.80;;
3967;SDS011;9221;42.646;23.380;2022-08-06T07:33:37;19.97;;;7.80;;
3967;SDS011;9221;42.646;23.380;2022-08-06T07:36:05;31.03;;;9.23;;
3967;SDS011;9221;42.646;23.380;2022-08-06T07:38:31;22.30;;;8.73;;
3967;SDS011;9221;42.646;23.380;2022-08-06T07:41:00;18.73;;;7.83;;
3967;SDS011;9221;42.646;23.380;2022-08-06T07:43:30;18.50;;;8.87;;
3967;SDS011;9221;42.646;23.380;2022-08-06T07:45:59;13.93;;;6.70;;
3967;SDS011;9221;42.646;23.380;2022-08-06T07:48:35;17.87;;;7.83;;
3967;SDS011;9221;42.646;23.380;2022-08-06T07:51:04;17.40;;;7.20;;
3967;SDS011;9221;42.646;23.380;2022-08-06T07:53:31;22.47;;;8.53;;
3967;SDS011;9221;42.646;23.380;2022-08-06T07:56:00;16.80;;;6.77;;
3967;SDS011;9221;42.646;23.380;2022-08-06T07:58:29;13.13;;;5.93;;
3967;SDS011;9221;42.646;23.380;2022-08-06T08:00:55;10.27;;;5.93;;
3967;SDS011;9221;42.646;23.380;2022-08-06T08:03:20;15.00;;;5.80;;
3967;SDS011;9221;42.646;23.380;2022-08-06T08:06:06;12.47;;;5.50;;
3967;SDS011;9221;42.646;23.380;2022-08-06T08:08:47;14.83;;;6.10;;
3967;SDS011;9221;42.646;23.380;2022-08-06T08:11:16;15.23;;;7.57;;
3967;SDS011;9221;42.646;23.380;2022-08-06T08:13:42;13.67;;;6.40;;
3967;SDS011;9221;42.646;23.380;2022-08-06T08:16:09;16.47;;;6.47;;
3967;SDS011;9221;42.646;23.380;2022-08-06T08:18:38;19.83;;;6.90;;
3967;SDS011;9221;42.646;23.380;2022-08-06T08:21:04;14.17;;;6.23;;
3967;SDS011;9221;42.646;23.380;2022-08-06T08:23:30;11.70;;;6.00;;
3967;SDS011;9221;42.646;23.380;2022-08-06T08:25:58;12.10;;;6.00;;
3967;SDS011;9221;42.646;23.380;2022-08-06T08:28:24;17.83;;;6.40;;
3967;SDS011;9221;42.646;23.380;2022-08-06T08:30:50;16.37;;;6.67;;
3967;SDS011;9221;42.646;23.380;2022-08-06T08:33:17;10.27;;;6.03;;
3967;SDS011;9221;42.646;23.380;2022-08-06T08:35:44;17.87;;;7.40;;
3967;SDS011;9221;42.646;23.380;2022-08-06T08:38:10;16.13;;;6.23;;
3967;SDS011;9221;42.646;23.380;2022-08-06T08:40:35;14.80;;;6.30;;
3967;SDS011;9221;42.646;23.380;2022-08-06T08:43:02;15.10;;;6.03;;
3967;SDS011;9221;42.646;23.380;2022-08-06T08:45:29;18.53;;;5.87;;
3967;SDS011;9221;42.646;23.380;2022-08-06T08:47:57;5.87;;;4.10;;
3967;SDS011;9221;42.646;23.380;2022-08-06T08:50:25;7.87;;;4.50;;
3967;SDS011;9221;42.646;23.380;2022-08-06T08:52:55;8.03;;;4.23;;
3967;SDS011;9221;42.646;23.380;2022-08-06T08:55:28;25.53;;;6.37;;
3967;SDS011;9221;42.646;23.380;2022-08-06T08:57:54;12.50;;;5.67;;
3967;SDS011;9221;42.646;23.380;2022-08-06T09:00:21;14.00;;;6.63;;
3967;SDS011;9221;42.646;23.380;2022-08-06T09:02:47;12.67;;;5.97;;
3967;SDS011;9221;42.646;23.380;2022-08-06T09:05:13;10.30;;;5.43;;
3967;SDS011;9221;42.646;23.380;2022-08-06T09:07:39;10.10;;;5.17;;
3967;SDS011;9221;42.646;23.380;2022-08-06T09:10:06;12.30;;;5.60;;
3967;SDS011;9221;42.646;23.380;2022-08-06T09:12:33;21.23;;;8.30;;
3967;SDS011;9221;42.646;23.380;2022-08-06T09:14:59;16.00;;;6.50;;
3967;SDS011;9221;42.646;23.380;2022-08-06T09:17:24;13.80;;;5.80;;
3967;SDS011;9221;42.646;23.380;2022-08-06T09:19:50;14.30;;;5.50;;
3967;SDS011;9221;42.646;23.380;2022-08-06T09:22:16;14.80;;;6.20;;
3967;SDS011;9221;42.646;23.380;2022-08-06T09:24:42;11.43;;;5.40;;
3967;SDS011;9221;42.646;23.380;2022-08-06T09:27:08;14.50;;;5.90;;
3967;SDS011;9221;42.646;23.380;2022-08-06T09:29:36;14.70;;;6.17;;
3967;SDS011;9221;42.646;23.380;2022-08-06T09:32:12;16.23;;;7.20;;
3967;SDS011;9221;42.646;23.380;2022-08-06T09:34:38;9.40;;;4.97;;
3967;SDS011;9221;42.646;23.380;2022-08-06T09:37:04;16.98;;;7.60;;
3967;SDS011;9221;42.646;23.380;2022-08-06T09:39:34;13.73;;;5.80;;
3967;SDS011;9221;42.646;23.380;2022-08-06T09:42:06;17.33;;;7.55;;
3967;SDS011;9221;42.646;23.380;2022-08-06T09:44:32;10.02;;;5.00;;
3967;SDS011;9221;42.646;23.380;2022-08-06T09:46:58;14.07;;;5.55;;
3967;SDS011;9221;42.646;23.380;2022-08-06T09:49:25;9.73;;;4.95;;
3967;SDS011;9221;42.646;23.380;2022-08-06T09:51:51;15.13;;;5.30;;
3967;SDS011;9221;42.646;23.380;2022-08-06T09:54:38;10.95;;;5.60;;
3967;SDS011;9221;42.646;23.380;2022-08-06T09:57:03;10.32;;;5.30;;
3967;SDS011;9221;42.646;23.380;2022-08-06T09:59:29;11.18;;;5.43;;
3967;SDS011;9221;42.646;23.380;2022-08-06T10:02:13;10.98;;;5.60;;
3967;SDS011;9221;42.646;23.380;2022-08-06T10:04:40;15.70;;;6.82;;
3967;SDS011;9221;42.646;23.380;2022-08-06T10:07:06;18.15;;;7.05;;
3967;SDS011;9221;42.646;23.380;2022-08-06T10:09:32;12.77;;;5.93;;
3967;SDS011;9221;42.646;23.380;2022-08-06T10:11:58;12.88;;;6.63;;
3967;SDS011;9221;42.646;23.380;2022-08-06T10:19:31;11.60;;;5.78;;
3967;SDS011;9221;42.646;23.380;2022-08-06T10:22:10;8.88;;;4.50;;
3967;SDS011;9221;42.646;23.380;2022-08-06T10:24:43;12.13;;;5.20;;
3967;SDS011;9221;42.646;23.380;2022-08-06T10:27:11;15.32;;;5.43;;
3967;SDS011;9221;42.646;23.380;2022-08-06T10:29:40;13.60;;;6.10;;
3967;SDS011;9221;42.646;23.380;2022-08-06T10:32:13;16.77;;;7.18;;
3967;SDS011;9221;42.646;23.380;2022-08-06T10:34:41;9.18;;;4.65;;
3967;SDS011;9221;42.646;23.380;2022-08-06T10:37:09;18.80;;;6.65;;
3967;SDS011;9221;42.646;23.380;2022-08-06T10:39:39;19.17;;;6.90;;
3967;SDS011;9221;42.646;23.380;2022-08-06T10:42:07;13.82;;;6.35;;
3967;SDS011;9221;42.646;23.380;2022-08-06T10:44:33;14.13;;;6.38;;
3967;SDS011;9221;42.646;23.380;2022-08-06T10:47:00;11.93;;;5.22;;
3967;SDS011;9221;42.646;23.380;2022-08-06T10:49:27;9.95;;;5.47;;
3967;SDS011;9221;42.646;23.380;2022-08-06T10:51:55;10.65;;;5.93;;
3967;SDS011;9221;42.646;23.380;2022-08-06T10:54:21;12.05;;;6.57;;
3967;SDS011;9221;42.646;23.380;2022-08-06T10:56:48;19.00;;;7.00;;
3967;SDS011;9221;42.646;23.380;2022-08-06T10:59:14;14.43;;;7.32;;
3967;SDS011;9221;42.646;23.380;2022-08-06T11:04:50;20.83;;;6.72;;
3967;SDS011;9221;42.646;23.380;2022-08-06T11:15:35;13.25;;;6.97;;
3967;SDS011;9221;42.646;23.380;2022-08-06T11:18:08;14.50;;;6.72;;
3967;SDS011;9221;42.646;23.380;2022-08-06T11:20:36;8.82;;;4.47;;
3967;SDS011;9221;42.646;23.380;2022-08-06T11:25:40;20.05;;;6.82;;
3967;SDS011;9221;42.646;23.380;2022-08-06T11:28:10;12.20;;;5.32;;
3967;SDS011;9221;42.646;23.380;2022-08-06T11:33:10;11.70;;;6.50;;
3967;SDS011;9221;42.646;23.380;2022-08-06T11:38:04;12.52;;;5.07;;
3967;SDS011;9221;42.646;23.380;2022-08-06T11:54:16;10.38;;;4.90;;
3967;SDS011;9221;42.646;23.380;2022-08-06T11:59:24;11.90;;;5.57;;
3967;SDS011;9221;42.646;23.380;2022-08-06T12:01:50;14.87;;;6.47;;
3967;SDS011;9221;42.646;23.380;2022-08-06T12:22:58;12.10;;;5.67;;
3967;SDS011;9221;42.646;23.380;2022-08-06T12:25:31;14.83;;;6.33;;
3967;SDS011;9221;42.646;23.380;2022-08-06T12:28:00;14.73;;;6.57;;
3967;SDS011;9221;42.646;23.380;2022-08-06T12:30:26;14.57;;;5.40;;
3967;SDS011;9221;42.646;23.380;2022-08-06T12:33:05;13.50;;;5.67;;
3967;SDS011;9221;42.646;23.380;2022-08-06T12:35:31;15.57;;;6.30;;
3967;SDS011;9221;42.646;23.380;2022-08-06T12:37:57;12.80;;;5.33;;
3967;SDS011;9221;42.646;23.380;2022-08-06T12:40:23;16.50;;;6.23;;
3967;SDS011;9221;42.646;23.380;2022-08-06T12:42:49;15.17;;;6.50;;
3967;SDS011;9221;42.646;23.380;2022-08-06T12:45:24;10.60;;;4.67;;
3967;SDS011;9221;42.646;23.380;2022-08-06T12:50:37;12.00;;;5.67;;
3967;SDS011;9221;42.646;23.380;2022-08-06T12:55:36;13.73;;;4.80;;
3967;SDS011;9221;42.646;23.380;2022-08-06T12:58:08;16.23;;;6.27;;
3967;SDS011;9221;42.646;23.380;2022-08-06T13:00:34;11.63;;;5.60;;
3967;SDS011;9221;42.646;23.380;2022-08-06T13:03:02;14.07;;;6.10;;
3967;SDS011;9221;42.646;23.380;2022-08-06T13:05:30;11.10;;;4.53;;
3967;SDS011;9221;42.646;23.380;2022-08-06T13:07:56;12.73;;;5.30;;
3967;SDS011;9221;42.646;23.380;2022-08-06T13:10:22;14.23;;;5.80;;
3967;SDS011;9221;42.646;23.380;2022-08-06T13:12:52;9.83;;;5.17;;
3967;SDS011;9221;42.646;23.380;2022-08-06T13:15:19;13.57;;;5.97;;
3967;SDS011;9221;42.646;23.380;2022-08-06T13:18:00;17.13;;;6.47;;
3967;SDS011;9221;42.646;23.380;2022-08-06T13:20:38;10.70;;;5.60;;
3967;SDS011;9221;42.646;23.380;2022-08-06T13:23:08;18.63;;;6.63;;
3967;SDS011;9221;42.646;23.380;2022-08-06T13:25:41;16.98;;;6.30;;
3967;SDS011;9221;42.646;23.380;2022-08-06T13:28:15;16.63;;;7.00;;
3967;SDS011;9221;42.646;23.380;2022-08-06T13:30:42;10.85;;;5.32;;
3967;SDS011;9221;42.646;23.380;2022-08-06T13:33:12;16.65;;;7.30;;
3967;SDS011;9221;42.646;23.380;2022-08-06T13:35:41;10.98;;;5.45;;
3967;SDS011;9221;42.646;23.380;2022-08-06T13:38:07;12.25;;;5.57;;
3967;SDS011;9221;42.646;23.380;2022-08-06T13:40:44;16.73;;;7.25;;
3967;SDS011;9221;42.646;23.380;2022-08-06T13:43:11;17.58;;;7.13;;
3967;SDS011;9221;42.646;23.380;2022-08-06T13:45:37;17.42;;;5.97;;
3967;SDS011;9221;42.646;23.380;2022-08-06T13:48:09;19.27;;;6.93;;
3967;SDS011;9221;42.646;23.380;2022-08-06T13:50:43;17.15;;;6.93;;
3967;SDS011;9221;42.646;23.380;2022-08-06T13:53:10;13.02;;;5.93;;
3967;SDS011;9221;42.646;23.380;2022-08-06T13:55:37;13.90;;;5.25;;
3967;SDS011;9221;42.646;23.380;2022-08-06T13:58:06;16.90;;;6.07;;
3967;SDS011;9221;42.646;23.380;2022-08-06T14:00:35;13.18;;;5.88;;
3967;SDS011;9221;42.646;23.380;2022-08-06T14:03:00;10.32;;;5.47;;
3967;SDS011;9221;42.646;23.380;2022-08-06T14:05:28;19.08;;;6.88;;
3967;SDS011;9221;42.646;23.380;2022-08-06T14:07:53;11.40;;;6.00;;
3967;SDS011;9221;42.646;23.380;2022-08-06T14:10:19;15.18;;;6.75;;
3967;SDS011;9221;42.646;23.380;2022-08-06T14:12:44;16.15;;;7.15;;
3967;SDS011;9221;42.646;23.380;2022-08-06T14:15:31;14.60;;;6.38;;
3967;SDS011;9221;42.646;23.380;2022-08-06T14:17:57;11.98;;;5.65;;
3967;SDS011;9221;42.646;23.380;2022-08-06T14:20:22;11.52;;;6.60;;
3967;SDS011;9221;42.646;23.380;2022-08-06T14:22:48;11.20;;;5.28;;
3967;SDS011;9221;42.646;23.380;2022-08-06T14:25:13;14.85;;;6.90;;
3967;SDS011;9221;42.646;23.380;2022-08-06T14:27:39;10.18;;;5.78;;
3967;SDS011;9221;42.646;23.380;2022-08-06T14:30:05;15.20;;;6.20;;
3967;SDS011;9221;42.646;23.380;2022-08-06T14:32:31;12.10;;;5.75;;
3967;SDS011;9221;42.646;23.380;2022-08-06T14:34:56;15.13;;;6.72;;
3967;SDS011;9221;42.646;23.380;2022-08-06T14:37:22;12.30;;;6.13;;
3967;SDS011;9221;42.646;23.380;2022-08-06T14:39:47;18.60;;;7.47;;
3967;SDS011;9221;42.646;23.380;2022-08-06T14:42:13;18.10;;;7.93;;
3967;SDS011;9221;42.646;23.380;2022-08-06T14:44:57;10.80;;;5.30;;
3967;SDS011;9221;42.646;23.380;2022-08-06T14:47:24;13.15;;;6.72;;
3967;SDS011;9221;42.646;23.380;2022-08-06T14:49:50;11.10;;;5.50;;
3967;SDS011;9221;42.646;23.380;2022-08-06T14:52:16;13.05;;;6.13;;
3967;SDS011;9221;42.646;23.380;2022-08-06T14:54:42;13.82;;;6.18;;
3967;SDS011;9221;42.646;23.380;2022-08-06T14:57:08;24.90;;;7.38;;
3967;SDS011;9221;42.646;23.380;2022-08-06T14:59:35;12.75;;;5.85;;
3967;SDS011;9221;42.646;23.380;2022-08-06T15:02:01;20.75;;;7.45;;
3967;SDS011;9221;42.646;23.380;2022-08-06T15:04:28;17.98;;;6.85;;
3967;SDS011;9221;42.646;23.380;2022-08-06T15:06:53;15.25;;;6.30;;
3967;SDS011;9221;42.646;23.380;2022-08-06T15:09:19;13.45;;;6.50;;
3967;SDS011;9221;42.646;23.380;2022-08-06T15:11:45;12.27;;;6.05;;
3967;SDS011;9221;42.646;23.380;2022-08-06T15:14:11;18.27;;;7.57;;
3967;SDS011;9221;42.646;23.380;2022-08-06T15:16:36;17.48;;;6.45;;
3967;SDS011;9221;42.646;23.380;2022-08-06T15:19:02;11.07;;;6.13;;
3967;SDS011;9221;42.646;23.380;2022-08-06T15:21:28;11.93;;;5.90;;
3967;SDS011;9221;42.646;23.380;2022-08-06T15:23:54;13.23;;;5.95;;
3967;SDS011;9221;42.646;23.380;2022-08-06T15:26:21;11.25;;;6.53;;
3967;SDS011;9221;42.646;23.380;2022-08-06T15:28:47;14.27;;;6.40;;
3967;SDS011;9221;42.646;23.380;2022-08-06T15:31:12;11.02;;;5.72;;
3967;SDS011;9221;42.646;23.380;2022-08-06T15:33:38;13.82;;;6.13;;
3967;SDS011;9221;42.646;23.380;2022-08-06T15:36:04;11.80;;;5.72;;
3967;SDS011;9221;42.646;23.380;2022-08-06T15:38:29;21.63;;;6.60;;
3967;SDS011;9221;42.646;23.380;2022-08-06T15:40:55;13.38;;;6.47;;
3967;SDS011;9221;42.646;23.380;2022-08-06T15:43:21;11.02;;;5.82;;
3967;SDS011;9221;42.646;23.380;2022-08-06T15:45:49;13.80;;;6.57;;
3967;SDS011;9221;42.646;23.380;2022-08-06T15:48:15;18.23;;;7.40;;
3967;SDS011;9221;42.646;23.380;2022-08-06T15:50:41;11.32;;;6.35;;
3967;SDS011;9221;42.646;23.380;2022-08-06T15:53:07;15.50;;;6.28;;
3967;SDS011;9221;42.646;23.380;2022-08-06T15:55:33;13.23;;;6.00;;
3967;SDS011;9221;42.646;23.380;2022-08-06T15:57:59;13.63;;;6.10;;
3967;SDS011;9221;42.646;23.380;2022-08-06T16:03:09;11.70;;;6.53;;
3967;SDS011;9221;42.646;23.380;2022-08-06T16:05:36;21.47;;;8.50;;
3967;SDS011;9221;42.646;23.380;2022-08-06T16:08:02;26.60;;;8.80;;
3967;SDS011;9221;42.646;23.380;2022-08-06T16:10:28;23.23;;;8.07;;
3967;SDS011;9221;42.646;23.380;2022-08-06T16:12:54;13.33;;;7.17;;
3967;SDS011;9221;42.646;23.380;2022-08-06T16:15:20;14.60;;;6.47;;
3967;SDS011;9221;42.646;23.380;2022-08-06T16:17:45;10.53;;;5.50;;
3967;SDS011;9221;42.646;23.380;2022-08-06T16:20:11;12.50;;;5.70;;
3967;SDS011;9221;42.646;23.380;2022-08-06T16:22:38;12.93;;;6.10;;
3967;SDS011;9221;42.646;23.380;2022-08-06T16:25:03;13.80;;;6.77;;
3967;SDS011;9221;42.646;23.380;2022-08-06T16:27:29;14.30;;;6.57;;
3967;SDS011;9221;42.646;23.380;2022-08-06T16:29:55;17.87;;;7.80;;
3967;SDS011;9221;42.646;23.380;2022-08-06T16:32:20;16.17;;;7.30;;